sensor_id;sensor_type;location;lat;lon;timestamp;P1;durP1;ratioP1;P2;durP2;ratioP2
2576;SDS011;1298;51.252;6.802;2023-08-12T00:02:13;978.78;;;914.67;;
2576;SDS011;1298;51.252;6.802;2023-08-12T00:04:59;915.42;;;853.80;;
2576;SDS011;1298;51.252;6.802;2023-08-12T00:07:46;912.80;;;851.67;;
2576;SDS011;1298;51.252;6.802;2023-08-12T00:10:33;891.17;;;830.25;;
2576;SDS011;1298;51.252;6.802;2023-08-12T00:13:18;958.58;;;896.22;;
2576;SDS011;1298;51.252;6.802;2023-08-12T00:16:04;905.13;;;843.75;;
2576;SDS011;1298;51.252;6.802;2023-08-12T00:18:52;906.10;;;845.08;;
2576;SDS011;1298;51.252;6.802;2023-08-12T00:21:38;906.10;;;844.58;;
2576;SDS011;1298;51.252;6.802;2023-08-12T00:24:25;960.50;;;897.27;;
2576;SDS011;1298;51.252;6.802;2023-08-12T00:27:11;954.57;;;892.40;;
2576;SDS011;1298;51.252;6.802;2023-08-12T00:29:56;904.05;;;842.95;;
2576;SDS011;1298;51.252;6.802;2023-08-12T00:32:42;922.17;;;860.63;;
2576;SDS011;1298;51.252;6.802;2023-08-12T00:35:28;895.55;;;834.88;;
2576;SDS011;1298;51.252;6.802;2023-08-12T00:38:17;894.78;;;834.50;;
2576;SDS011;1298;51.252;6.802;2023-08-12T00:41:04;907.78;;;846.75;;
2576;SDS011;1298;51.252;6.802;2023-08-12T00:43:52;905.28;;;844.30;;
2576;SDS011;1298;51.252;6.802;2023-08-12T00:46:38;967.55;;;904.30;;
2576;SDS011;1298;51.252;6.802;2023-08-12T00:49:28;913.77;;;852.60;;
2576;SDS011;1298;51.252;6.802;2023-08-12T00:52:16;981.72;;;917.85;;
2576;SDS011;1298;51.252;6.802;2023-08-12T00:55:03;913.53;;;852.33;;
2576;SDS011;1298;51.252;6.802;2023-08-12T00:57:50;972.25;;;908.60;;
2576;SDS011;1298;51.252;6.802;2023-08-12T01:00:36;907.13;;;846.53;;
2576;SDS011;1298;51.252;6.802;2023-08-12T01:03:22;897.28;;;836.60;;
2576;SDS011;1298;51.252;6.802;2023-08-12T01:06:08;908.40;;;846.53;;
2576;SDS011;1298;51.252;6.802;2023-08-12T01:08:53;903.60;;;842.08;;
2576;SDS011;1298;51.252;6.802;2023-08-12T01:11:41;911.63;;;850.33;;
2576;SDS011;1298;51.252;6.802;2023-08-12T01:14:35;903.05;;;842.03;;
2576;SDS011;1298;51.252;6.802;2023-08-12T01:17:26;897.00;;;835.60;;
2576;SDS011;1298;51.252;6.802;2023-08-12T01:20:14;901.33;;;840.73;;
2576;SDS011;1298;51.252;6.802;2023-08-12T01:23:06;906.70;;;844.80;;
2576;SDS011;1298;51.252;6.802;2023-08-12T01:25:54;893.77;;;833.37;;
2576;SDS011;1298;51.252;6.802;2023-08-12T01:28:40;905.03;;;844.03;;
2576;SDS011;1298;51.252;6.802;2023-08-12T01:31:27;921.40;;;859.97;;
2576;SDS011;1298;51.252;6.802;2023-08-12T01:34:28;900.35;;;839.55;;
2576;SDS011;1298;51.252;6.802;2023-08-12T01:37:31;901.63;;;840.03;;
2576;SDS011;1298;51.252;6.802;2023-08-12T01:40:20;906.15;;;844.58;;
2576;SDS011;1298;51.252;6.802;2023-08-12T01:43:06;895.80;;;835.27;;
2576;SDS011;1298;51.252;6.802;2023-08-12T01:45:51;895.90;;;834.90;;
2576;SDS011;1298;51.252;6.802;2023-08-12T01:48:37;963.90;;;900.63;;
2576;SDS011;1298;51.252;6.802;2023-08-12T01:51:23;922.23;;;860.03;;
2576;SDS011;1298;51.252;6.802;2023-08-12T01:54:08;978.63;;;915.00;;
2576;SDS011;1298;51.252;6.802;2023-08-12T01:56:55;969.20;;;905.60;;
2576;SDS011;1298;51.252;6.802;2023-08-12T01:59:40;966.78;;;902.58;;
2576;SDS011;1298;51.252;6.802;2023-08-12T02:02:27;910.33;;;849.10;;
2576;SDS011;1298;51.252;6.802;2023-08-12T02:05:13;979.57;;;915.50;;
2576;SDS011;1298;51.252;6.802;2023-08-12T02:07:59;901.87;;;840.90;;
2576;SDS011;1298;51.252;6.802;2023-08-12T02:10:45;954.20;;;891.70;;
2576;SDS011;1298;51.252;6.802;2023-08-12T02:13:32;905.50;;;843.93;;
2576;SDS011;1298;51.252;6.802;2023-08-12T02:16:18;891.10;;;830.42;;
2576;SDS011;1298;51.252;6.802;2023-08-12T02:19:04;896.80;;;836.43;;
2576;SDS011;1298;51.252;6.802;2023-08-12T02:21:49;892.33;;;831.63;;
2576;SDS011;1298;51.252;6.802;2023-08-12T02:24:34;894.67;;;834.40;;
2576;SDS011;1298;51.252;6.802;2023-08-12T02:27:20;907.63;;;847.10;;
2576;SDS011;1298;51.252;6.802;2023-08-12T02:30:08;899.17;;;839.33;;
2576;SDS011;1298;51.252;6.802;2023-08-12T02:32:54;970.93;;;908.13;;
2576;SDS011;1298;51.252;6.802;2023-08-12T02:35:39;957.72;;;894.72;;
2576;SDS011;1298;51.252;6.802;2023-08-12T02:38:25;956.37;;;893.90;;
2576;SDS011;1298;51.252;6.802;2023-08-12T02:41:10;906.30;;;845.50;;
2576;SDS011;1298;51.252;6.802;2023-08-12T02:43:56;910.60;;;849.88;;
2576;SDS011;1298;51.252;6.802;2023-08-12T02:46:43;910.95;;;850.13;;
2576;SDS011;1298;51.252;6.802;2023-08-12T02:49:28;892.65;;;832.38;;
2576;SDS011;1298;51.252;6.802;2023-08-12T02:52:14;912.03;;;851.27;;
2576;SDS011;1298;51.252;6.802;2023-08-12T02:54:59;914.58;;;853.75;;
2576;SDS011;1298;51.252;6.802;2023-08-12T02:57:45;974.63;;;911.28;;
2576;SDS011;1298;51.252;6.802;2023-08-12T03:00:31;969.92;;;907.10;;
2576;SDS011;1298;51.252;6.802;2023-08-12T03:03:18;906.27;;;845.20;;
2576;SDS011;1298;51.252;6.802;2023-08-12T03:06:03;960.00;;;897.40;;
2576;SDS011;1298;51.252;6.802;2023-08-12T03:08:49;893.50;;;832.87;;
2576;SDS011;1298;51.252;6.802;2023-08-12T03:11:35;910.88;;;850.35;;
2576;SDS011;1298;51.252;6.802;2023-08-12T03:14:20;971.33;;;908.07;;
2576;SDS011;1298;51.252;6.802;2023-08-12T03:17:07;970.75;;;907.60;;
2576;SDS011;1298;51.252;6.802;2023-08-12T03:19:54;970.97;;;908.05;;
2576;SDS011;1298;51.252;6.802;2023-08-12T03:22:42;956.28;;;894.22;;
2576;SDS011;1298;51.252;6.802;2023-08-12T03:25:28;917.35;;;856.75;;
2576;SDS011;1298;51.252;6.802;2023-08-12T03:28:14;899.50;;;839.00;;
2576;SDS011;1298;51.252;6.802;2023-08-12T03:30:59;903.47;;;843.30;;
2576;SDS011;1298;51.252;6.802;2023-08-12T03:33:45;918.00;;;856.97;;
2576;SDS011;1298;51.252;6.802;2023-08-12T03:36:32;908.72;;;848.45;;
2576;SDS011;1298;51.252;6.802;2023-08-12T03:39:17;895.70;;;835.65;;
2576;SDS011;1298;51.252;6.802;2023-08-12T03:42:03;887.57;;;828.07;;
2576;SDS011;1298;51.252;6.802;2023-08-12T03:44:49;902.43;;;842.63;;
2576;SDS011;1298;51.252;6.802;2023-08-12T03:47:35;898.30;;;838.30;;
2576;SDS011;1298;51.252;6.802;2023-08-12T03:50:20;893.53;;;833.40;;
2576;SDS011;1298;51.252;6.802;2023-08-12T03:53:07;899.13;;;838.97;;
2576;SDS011;1298;51.252;6.802;2023-08-12T03:55:53;948.33;;;886.37;;
2576;SDS011;1298;51.252;6.802;2023-08-12T03:58:39;906.73;;;846.03;;
2576;SDS011;1298;51.252;6.802;2023-08-12T04:01:25;897.60;;;837.13;;
2576;SDS011;1298;51.252;6.802;2023-08-12T04:04:11;895.00;;;835.30;;
2576;SDS011;1298;51.252;6.802;2023-08-12T04:06:56;904.00;;;843.55;;
2576;SDS011;1298;51.252;6.802;2023-08-12T04:09:43;903.88;;;843.00;;
2576;SDS011;1298;51.252;6.802;2023-08-12T04:12:29;898.85;;;839.05;;
2576;SDS011;1298;51.252;6.802;2023-08-12T04:15:15;955.60;;;893.60;;
2576;SDS011;1298;51.252;6.802;2023-08-12T04:18:01;894.90;;;834.65;;
2576;SDS011;1298;51.252;6.802;2023-08-12T04:20:47;900.23;;;840.33;;
2576;SDS011;1298;51.252;6.802;2023-08-12T04:23:34;881.53;;;822.33;;
2576;SDS011;1298;51.252;6.802;2023-08-12T04:26:21;889.97;;;830.47;;
2576;SDS011;1298;51.252;6.802;2023-08-12T04:29:06;908.20;;;847.20;;
2576;SDS011;1298;51.252;6.802;2023-08-12T04:31:52;935.90;;;874.70;;
2576;SDS011;1298;51.252;6.802;2023-08-12T04:34:37;948.45;;;886.83;;
2576;SDS011;1298;51.252;6.802;2023-08-12T04:37:23;883.30;;;823.97;;
2576;SDS011;1298;51.252;6.802;2023-08-12T04:40:09;891.33;;;831.75;;
2576;SDS011;1298;51.252;6.802;2023-08-12T04:42:57;883.22;;;824.00;;
2576;SDS011;1298;51.252;6.802;2023-08-12T04:45:44;894.85;;;834.22;;
2576;SDS011;1298;51.252;6.802;2023-08-12T04:48:30;892.53;;;832.90;;
2576;SDS011;1298;51.252;6.802;2023-08-12T04:51:16;890.90;;;831.92;;
2576;SDS011;1298;51.252;6.802;2023-08-12T04:54:01;878.72;;;819.65;;
2576;SDS011;1298;51.252;6.802;2023-08-12T04:56:47;900.40;;;840.88;;
2576;SDS011;1298;51.252;6.802;2023-08-12T04:59:34;955.10;;;892.93;;
2576;SDS011;1298;51.252;6.802;2023-08-12T05:02:20;950.22;;;888.83;;
2576;SDS011;1298;51.252;6.802;2023-08-12T05:05:06;888.70;;;828.90;;
2576;SDS011;1298;51.252;6.802;2023-08-12T05:07:52;891.53;;;832.40;;
2576;SDS011;1298;51.252;6.802;2023-08-12T05:10:39;895.60;;;836.00;;
2576;SDS011;1298;51.252;6.802;2023-08-12T05:13:25;899.33;;;839.75;;
2576;SDS011;1298;51.252;6.802;2023-08-12T05:16:13;952.20;;;890.72;;
2576;SDS011;1298;51.252;6.802;2023-08-12T05:18:59;892.07;;;832.90;;
2576;SDS011;1298;51.252;6.802;2023-08-12T05:21:44;910.42;;;849.60;;
2576;SDS011;1298;51.252;6.802;2023-08-12T05:24:30;900.70;;;840.58;;
2576;SDS011;1298;51.252;6.802;2023-08-12T05:27:15;896.75;;;837.22;;
2576;SDS011;1298;51.252;6.802;2023-08-12T05:30:01;890.30;;;830.73;;
2576;SDS011;1298;51.252;6.802;2023-08-12T05:32:48;889.28;;;829.85;;
2576;SDS011;1298;51.252;6.802;2023-08-12T05:35:33;921.67;;;861.20;;
2576;SDS011;1298;51.252;6.802;2023-08-12T05:38:18;884.37;;;823.87;;
2576;SDS011;1298;51.252;6.802;2023-08-12T05:41:04;898.92;;;839.00;;
2576;SDS011;1298;51.252;6.802;2023-08-12T05:43:51;902.80;;;843.40;;
2576;SDS011;1298;51.252;6.802;2023-08-12T05:46:36;918.25;;;857.72;;
2576;SDS011;1298;51.252;6.802;2023-08-12T05:49:24;900.60;;;841.10;;
2576;SDS011;1298;51.252;6.802;2023-08-12T05:52:09;905.07;;;844.27;;
2576;SDS011;1298;51.252;6.802;2023-08-12T05:54:54;915.22;;;854.47;;
2576;SDS011;1298;51.252;6.802;2023-08-12T05:57:40;908.28;;;848.00;;
2576;SDS011;1298;51.252;6.802;2023-08-12T06:00:25;956.47;;;894.67;;
2576;SDS011;1298;51.252;6.802;2023-08-12T06:03:11;899.50;;;839.65;;
2576;SDS011;1298;51.252;6.802;2023-08-12T06:05:59;885.83;;;826.13;;
2576;SDS011;1298;51.252;6.802;2023-08-12T06:08:44;885.50;;;826.42;;
2576;SDS011;1298;51.252;6.802;2023-08-12T06:11:30;897.40;;;838.08;;
2576;SDS011;1298;51.252;6.802;2023-08-12T06:14:16;949.83;;;888.30;;
2576;SDS011;1298;51.252;6.802;2023-08-12T06:17:01;893.92;;;834.22;;
2576;SDS011;1298;51.252;6.802;2023-08-12T06:19:47;937.23;;;876.37;;
2576;SDS011;1298;51.252;6.802;2023-08-12T06:22:34;878.43;;;818.87;;
2576;SDS011;1298;51.252;6.802;2023-08-12T06:25:20;955.88;;;894.00;;
2576;SDS011;1298;51.252;6.802;2023-08-12T06:28:05;949.17;;;887.72;;
2576;SDS011;1298;51.252;6.802;2023-08-12T06:30:53;957.47;;;895.88;;
2576;SDS011;1298;51.252;6.802;2023-08-12T06:33:38;949.10;;;887.92;;
2576;SDS011;1298;51.252;6.802;2023-08-12T06:36:24;938.23;;;877.43;;
2576;SDS011;1298;51.252;6.802;2023-08-12T06:39:11;880.67;;;821.72;;
2576;SDS011;1298;51.252;6.802;2023-08-12T06:41:57;886.03;;;827.05;;
2576;SDS011;1298;51.252;6.802;2023-08-12T06:44:43;877.73;;;818.77;;
2576;SDS011;1298;51.252;6.802;2023-08-12T06:47:28;891.38;;;832.33;;
2576;SDS011;1298;51.252;6.802;2023-08-12T06:50:14;880.30;;;821.33;;
2576;SDS011;1298;51.252;6.802;2023-08-12T06:53:00;873.40;;;814.95;;
2576;SDS011;1298;51.252;6.802;2023-08-12T06:55:47;885.60;;;825.65;;
2576;SDS011;1298;51.252;6.802;2023-08-12T06:58:33;876.60;;;817.83;;
2576;SDS011;1298;51.252;6.802;2023-08-12T07:01:18;878.97;;;820.60;;
2576;SDS011;1298;51.252;6.802;2023-08-12T07:04:04;893.17;;;834.27;;
2576;SDS011;1298;51.252;6.802;2023-08-12T07:06:50;877.30;;;818.73;;
2576;SDS011;1298;51.252;6.802;2023-08-12T07:09:36;877.20;;;818.13;;
2576;SDS011;1298;51.252;6.802;2023-08-12T07:12:22;877.00;;;818.03;;
2576;SDS011;1298;51.252;6.802;2023-08-12T07:15:08;880.60;;;821.50;;
2576;SDS011;1298;51.252;6.802;2023-08-12T07:17:55;936.42;;;875.47;;
2576;SDS011;1298;51.252;6.802;2023-08-12T07:20:41;891.63;;;832.63;;
2576;SDS011;1298;51.252;6.802;2023-08-12T07:23:27;891.33;;;832.27;;
2576;SDS011;1298;51.252;6.802;2023-08-12T07:26:12;897.10;;;837.70;;
2576;SDS011;1298;51.252;6.802;2023-08-12T07:28:59;899.37;;;839.70;;
2576;SDS011;1298;51.252;6.802;2023-08-12T07:31:45;918.77;;;858.47;;
2576;SDS011;1298;51.252;6.802;2023-08-12T07:34:31;901.73;;;841.87;;
2576;SDS011;1298;51.252;6.802;2023-08-12T07:37:16;896.97;;;837.77;;
2576;SDS011;1298;51.252;6.802;2023-08-12T07:40:02;901.20;;;841.40;;
2576;SDS011;1298;51.252;6.802;2023-08-12T07:42:49;906.50;;;846.30;;
2576;SDS011;1298;51.252;6.802;2023-08-12T07:45:35;908.27;;;848.23;;
2576;SDS011;1298;51.252;6.802;2023-08-12T07:48:21;907.42;;;847.30;;
2576;SDS011;1298;51.252;6.802;2023-08-12T07:51:06;915.03;;;855.23;;
2576;SDS011;1298;51.252;6.802;2023-08-12T07:53:52;971.53;;;909.37;;
2576;SDS011;1298;51.252;6.802;2023-08-12T07:56:38;908.53;;;848.93;;
2576;SDS011;1298;51.252;6.802;2023-08-12T07:59:23;966.83;;;904.73;;
2576;SDS011;1298;51.252;6.802;2023-08-12T08:02:10;970.57;;;908.60;;
2576;SDS011;1298;51.252;6.802;2023-08-12T08:04:56;984.53;;;921.53;;
2576;SDS011;1298;51.252;6.802;2023-08-12T08:07:42;909.87;;;849.37;;
2576;SDS011;1298;51.252;6.802;2023-08-12T08:10:27;914.50;;;854.03;;
2576;SDS011;1298;51.252;6.802;2023-08-12T08:13:14;910.73;;;850.73;;
2576;SDS011;1298;51.252;6.802;2023-08-12T08:16:00;899.37;;;839.97;;
2576;SDS011;1298;51.252;6.802;2023-08-12T08:18:47;901.63;;;842.00;;
2576;SDS011;1298;51.252;6.802;2023-08-12T08:21:33;904.13;;;844.63;;
2576;SDS011;1298;51.252;6.802;2023-08-12T08:24:19;961.40;;;899.80;;
2576;SDS011;1298;51.252;6.802;2023-08-12T08:27:05;910.43;;;850.23;;
2576;SDS011;1298;51.252;6.802;2023-08-12T08:29:50;974.17;;;911.97;;
2576;SDS011;1298;51.252;6.802;2023-08-12T08:32:37;929.30;;;868.60;;
2576;SDS011;1298;51.252;6.802;2023-08-12T08:35:24;967.53;;;905.30;;
2576;SDS011;1298;51.252;6.802;2023-08-12T08:38:09;977.40;;;914.90;;
2576;SDS011;1298;51.252;6.802;2023-08-12T08:40:54;983.73;;;921.13;;
2576;SDS011;1298;51.252;6.802;2023-08-12T08:43:42;971.73;;;909.30;;
2576;SDS011;1298;51.252;6.802;2023-08-12T08:46:29;944.10;;;883.10;;
2576;SDS011;1298;51.252;6.802;2023-08-12T08:49:14;932.03;;;871.13;;
2576;SDS011;1298;51.252;6.802;2023-08-12T08:52:02;999.03;;;935.53;;
2576;SDS011;1298;51.252;6.802;2023-08-12T08:54:48;926.80;;;866.03;;
2576;SDS011;1298;51.252;6.802;2023-08-12T08:57:34;940.90;;;879.33;;
2576;SDS011;1298;51.252;6.802;2023-08-12T09:00:20;980.22;;;917.67;;
2576;SDS011;1298;51.252;6.802;2023-08-12T09:03:05;945.97;;;884.67;;
2576;SDS011;1298;51.252;6.802;2023-08-12T09:05:53;922.57;;;861.87;;
2576;SDS011;1298;51.252;6.802;2023-08-12T09:08:42;995.53;;;932.13;;
2576;SDS011;1298;51.252;6.802;2023-08-12T09:11:32;920.27;;;860.43;;
2576;SDS011;1298;51.252;6.802;2023-08-12T09:14:18;933.13;;;872.07;;
2576;SDS011;1298;51.252;6.802;2023-08-12T09:17:04;931.20;;;870.50;;
2576;SDS011;1298;51.252;6.802;2023-08-12T09:19:50;935.40;;;874.42;;
2576;SDS011;1298;51.252;6.802;2023-08-12T09:22:36;918.37;;;858.30;;
2576;SDS011;1298;51.252;6.802;2023-08-12T09:25:23;925.47;;;864.97;;
2576;SDS011;1298;51.252;6.802;2023-08-12T09:28:08;925.92;;;865.30;;
2576;SDS011;1298;51.252;6.802;2023-08-12T09:30:54;923.33;;;863.33;;
2576;SDS011;1298;51.252;6.802;2023-08-12T09:33:39;912.90;;;853.13;;
2576;SDS011;1298;51.252;6.802;2023-08-12T09:36:27;927.67;;;867.23;;
2576;SDS011;1298;51.252;6.802;2023-08-12T09:39:13;926.63;;;866.33;;
2576;SDS011;1298;51.252;6.802;2023-08-12T09:42:00;925.53;;;865.47;;
2576;SDS011;1298;51.252;6.802;2023-08-12T09:44:46;923.22;;;862.78;;
2576;SDS011;1298;51.252;6.802;2023-08-12T09:47:33;993.53;;;930.63;;
2576;SDS011;1298;51.252;6.802;2023-08-12T09:50:20;927.40;;;866.90;;
2576;SDS011;1298;51.252;6.802;2023-08-12T09:53:06;999.23;;;935.83;;
2576;SDS011;1298;51.252;6.802;2023-08-12T09:55:51;946.03;;;885.03;;
2576;SDS011;1298;51.252;6.802;2023-08-12T09:58:39;940.00;;;878.83;;
2576;SDS011;1298;51.252;6.802;2023-08-12T10:01:27;948.73;;;887.23;;
2576;SDS011;1298;51.252;6.802;2023-08-12T10:04:13;947.47;;;885.80;;
2576;SDS011;1298;51.252;6.802;2023-08-12T10:07:02;960.80;;;898.60;;
2576;SDS011;1298;51.252;6.802;2023-08-12T10:09:47;961.23;;;899.40;;
2576;SDS011;1298;51.252;6.802;2023-08-12T10:12:33;1006.50;;;942.50;;
2576;SDS011;1298;51.252;6.802;2023-08-12T10:15:21;1007.13;;;943.23;;
2576;SDS011;1298;51.252;6.802;2023-08-12T10:18:06;945.57;;;884.00;;
2576;SDS011;1298;51.252;6.802;2023-08-12T10:20:53;1018.87;;;954.57;;
2576;SDS011;1298;51.252;6.802;2023-08-12T10:23:41;1017.07;;;952.97;;
2576;SDS011;1298;51.252;6.802;2023-08-12T10:26:28;1017.60;;;953.23;;
2576;SDS011;1298;51.252;6.802;2023-08-12T10:29:15;942.50;;;880.93;;
2576;SDS011;1298;51.252;6.802;2023-08-12T10:32:02;944.97;;;883.70;;
2576;SDS011;1298;51.252;6.802;2023-08-12T10:34:51;1012.77;;;948.90;;
2576;SDS011;1298;51.252;6.802;2023-08-12T10:37:39;940.73;;;879.40;;
2576;SDS011;1298;51.252;6.802;2023-08-12T10:40:25;953.57;;;891.77;;
2576;SDS011;1298;51.252;6.802;2023-08-12T10:43:11;936.67;;;875.53;;
2576;SDS011;1298;51.252;6.802;2023-08-12T10:45:57;986.23;;;923.67;;
2576;SDS011;1298;51.252;6.802;2023-08-12T10:48:47;914.30;;;854.43;;
2576;SDS011;1298;51.252;6.802;2023-08-12T10:51:43;958.03;;;896.43;;
2576;SDS011;1298;51.252;6.802;2023-08-12T10:54:30;964.77;;;903.50;;
2576;SDS011;1298;51.252;6.802;2023-08-12T10:57:17;901.17;;;842.30;;
2576;SDS011;1298;51.252;6.802;2023-08-12T11:00:03;897.93;;;839.23;;
2576;SDS011;1298;51.252;6.802;2023-08-12T11:02:52;891.83;;;833.03;;
2576;SDS011;1298;51.252;6.802;2023-08-12T11:05:39;893.27;;;833.70;;
2576;SDS011;1298;51.252;6.802;2023-08-12T11:08:26;890.63;;;831.57;;
2576;SDS011;1298;51.252;6.802;2023-08-12T11:11:18;898.33;;;838.90;;
2576;SDS011;1298;51.252;6.802;2023-08-12T11:14:11;900.40;;;841.13;;
2576;SDS011;1298;51.252;6.802;2023-08-12T11:16:59;915.10;;;855.30;;
2576;SDS011;1298;51.252;6.802;2023-08-12T11:19:44;935.17;;;874.57;;
2576;SDS011;1298;51.252;6.802;2023-08-12T11:22:32;927.10;;;866.30;;
2576;SDS011;1298;51.252;6.802;2023-08-12T11:25:24;983.93;;;921.17;;
2576;SDS011;1298;51.252;6.802;2023-08-12T11:28:12;932.87;;;872.30;;
2576;SDS011;1298;51.252;6.802;2023-08-12T11:30:58;991.83;;;928.63;;
2576;SDS011;1298;51.252;6.802;2023-08-12T11:33:44;949.07;;;887.60;;
2576;SDS011;1298;51.252;6.802;2023-08-12T11:36:29;948.67;;;886.77;;
2576;SDS011;1298;51.252;6.802;2023-08-12T11:39:18;1006.70;;;943.10;;
2576;SDS011;1298;51.252;6.802;2023-08-12T11:42:04;1018.47;;;954.17;;
2576;SDS011;1298;51.252;6.802;2023-08-12T11:44:50;963.03;;;900.67;;
2576;SDS011;1298;51.252;6.802;2023-08-12T11:47:36;961.20;;;899.23;;
2576;SDS011;1298;51.252;6.802;2023-08-12T11:50:23;979.77;;;916.90;;
2576;SDS011;1298;51.252;6.802;2023-08-12T11:53:09;967.40;;;905.13;;
2576;SDS011;1298;51.252;6.802;2023-08-12T11:55:57;1029.50;;;964.73;;
2576;SDS011;1298;51.252;6.802;2023-08-12T11:58:42;1020.67;;;956.37;;
2576;SDS011;1298;51.252;6.802;2023-08-12T12:01:28;975.60;;;912.80;;
2576;SDS011;1298;51.252;6.802;2023-08-12T12:04:14;1010.10;;;945.83;;
2576;SDS011;1298;51.252;6.802;2023-08-12T12:07:01;986.03;;;922.77;;
2576;SDS011;1298;51.252;6.802;2023-08-12T12:09:50;1041.87;;;976.30;;
2576;SDS011;1298;51.252;6.802;2023-08-12T12:12:38;1045.07;;;979.00;;
2576;SDS011;1298;51.252;6.802;2023-08-12T12:15:23;1016.80;;;952.50;;
2576;SDS011;1298;51.252;6.802;2023-08-12T12:18:09;1037.10;;;971.83;;
2576;SDS011;1298;51.252;6.802;2023-08-12T12:20:56;1033.87;;;968.97;;
2576;SDS011;1298;51.252;6.802;2023-08-12T12:23:41;979.67;;;916.20;;
2576;SDS011;1298;51.252;6.802;2023-08-12T12:26:27;979.23;;;916.33;;
2576;SDS011;1298;51.252;6.802;2023-08-12T12:29:14;1037.47;;;972.03;;
2576;SDS011;1298;51.252;6.802;2023-08-12T12:32:00;947.07;;;885.50;;
2576;SDS011;1298;51.252;6.802;2023-08-12T12:34:45;990.83;;;927.53;;
2576;SDS011;1298;51.252;6.802;2023-08-12T12:37:31;905.30;;;845.70;;
2576;SDS011;1298;51.252;6.802;2023-08-12T12:40:17;887.60;;;828.40;;
2576;SDS011;1298;51.252;6.802;2023-08-12T12:43:02;934.60;;;874.33;;
2576;SDS011;1298;51.252;6.802;2023-08-12T12:45:49;951.63;;;890.83;;
2576;SDS011;1298;51.252;6.802;2023-08-12T12:48:35;868.10;;;810.00;;
2576;SDS011;1298;51.252;6.802;2023-08-12T12:51:21;874.42;;;815.85;;
2576;SDS011;1298;51.252;6.802;2023-08-12T12:54:06;935.30;;;875.10;;
2576;SDS011;1298;51.252;6.802;2023-08-12T12:56:52;867.92;;;809.90;;
2576;SDS011;1298;51.252;6.802;2023-08-12T12:59:37;935.60;;;875.60;;
2576;SDS011;1298;51.252;6.802;2023-08-12T13:02:24;857.80;;;799.90;;
2576;SDS011;1298;51.252;6.802;2023-08-12T13:05:10;882.57;;;824.00;;
2576;SDS011;1298;51.252;6.802;2023-08-12T13:07:55;872.07;;;814.10;;
2576;SDS011;1298;51.252;6.802;2023-08-12T13:10:41;894.00;;;835.17;;
2576;SDS011;1298;51.252;6.802;2023-08-12T13:13:27;875.07;;;816.70;;
2576;SDS011;1298;51.252;6.802;2023-08-12T13:16:12;889.87;;;831.03;;
2576;SDS011;1298;51.252;6.802;2023-08-12T13:19:01;880.65;;;821.63;;
2576;SDS011;1298;51.252;6.802;2023-08-12T13:21:51;938.40;;;877.73;;
2576;SDS011;1298;51.252;6.802;2023-08-12T13:24:36;943.03;;;882.33;;
2576;SDS011;1298;51.252;6.802;2023-08-12T13:27:22;891.33;;;832.63;;
2576;SDS011;1298;51.252;6.802;2023-08-12T13:30:08;886.27;;;828.17;;
2576;SDS011;1298;51.252;6.802;2023-08-12T13:32:55;885.70;;;827.10;;
2576;SDS011;1298;51.252;6.802;2023-08-12T13:35:43;920.53;;;860.57;;
2576;SDS011;1298;51.252;6.802;2023-08-12T13:38:29;897.63;;;838.53;;
2576;SDS011;1298;51.252;6.802;2023-08-12T13:41:14;921.50;;;860.87;;
2576;SDS011;1298;51.252;6.802;2023-08-12T13:44:00;907.50;;;847.90;;
2576;SDS011;1298;51.252;6.802;2023-08-12T13:46:47;973.80;;;911.43;;
2576;SDS011;1298;51.252;6.802;2023-08-12T13:49:33;920.20;;;859.93;;
2576;SDS011;1298;51.252;6.802;2023-08-12T13:52:20;934.13;;;873.13;;
2576;SDS011;1298;51.252;6.802;2023-08-12T13:55:05;998.60;;;935.30;;
2576;SDS011;1298;51.252;6.802;2023-08-12T13:57:51;1005.77;;;941.97;;
2576;SDS011;1298;51.252;6.802;2023-08-12T14:00:37;940.30;;;879.20;;
2576;SDS011;1298;51.252;6.802;2023-08-12T14:03:22;936.77;;;875.53;;
2576;SDS011;1298;51.252;6.802;2023-08-12T14:06:08;955.73;;;893.97;;
2576;SDS011;1298;51.252;6.802;2023-08-12T14:08:55;1041.17;;;975.67;;
2576;SDS011;1298;51.252;6.802;2023-08-12T14:11:40;1023.70;;;959.00;;
2576;SDS011;1298;51.252;6.802;2023-08-12T14:14:26;1042.83;;;977.43;;
2576;SDS011;1298;51.252;6.802;2023-08-12T14:17:12;983.27;;;919.90;;
2576;SDS011;1298;51.252;6.802;2023-08-12T14:19:59;1020.43;;;955.53;;
2576;SDS011;1298;51.252;6.802;2023-08-12T14:22:45;1050.67;;;984.60;;
2576;SDS011;1298;51.252;6.802;2023-08-12T14:25:32;999.60;;;935.63;;
2576;SDS011;1298;51.252;6.802;2023-08-12T14:28:17;1060.37;;;993.63;;
2576;SDS011;1298;51.252;6.802;2023-08-12T14:31:03;990.23;;;926.43;;
2576;SDS011;1298;51.252;6.802;2023-08-12T14:33:49;1013.90;;;949.43;;
2576;SDS011;1298;51.252;6.802;2023-08-12T14:36:34;1037.60;;;972.33;;
2576;SDS011;1298;51.252;6.802;2023-08-12T14:39:21;1034.37;;;969.03;;
2576;SDS011;1298;51.252;6.802;2023-08-12T14:42:07;980.60;;;917.70;;
2576;SDS011;1298;51.252;6.802;2023-08-12T14:44:54;984.53;;;921.43;;
2576;SDS011;1298;51.252;6.802;2023-08-12T14:47:41;1056.43;;;989.97;;
2576;SDS011;1298;51.252;6.802;2023-08-12T14:50:26;1049.37;;;983.67;;
2576;SDS011;1298;51.252;6.802;2023-08-12T14:53:12;979.90;;;916.40;;
2576;SDS011;1298;51.252;6.802;2023-08-12T14:55:58;1058.70;;;992.00;;
2576;SDS011;1298;51.252;6.802;2023-08-12T14:58:46;1005.80;;;941.83;;
2576;SDS011;1298;51.252;6.802;2023-08-12T15:01:31;1008.17;;;944.03;;
2576;SDS011;1298;51.252;6.802;2023-08-12T15:04:17;1091.47;;;999.90;;
2576;SDS011;1298;51.252;6.802;2023-08-12T15:07:03;1049.80;;;983.30;;
2576;SDS011;1298;51.252;6.802;2023-08-12T15:09:49;1123.70;;;999.90;;
2576;SDS011;1298;51.252;6.802;2023-08-12T15:12:36;1138.53;;;999.90;;
2576;SDS011;1298;51.252;6.802;2023-08-12T15:15:23;1107.23;;;999.90;;
2576;SDS011;1298;51.252;6.802;2023-08-12T15:18:08;1146.63;;;999.90;;
2576;SDS011;1298;51.252;6.802;2023-08-12T15:20:54;1060.93;;;992.47;;
2576;SDS011;1298;51.252;6.802;2023-08-12T15:23:39;1052.53;;;986.03;;
2576;SDS011;1298;51.252;6.802;2023-08-12T15:26:25;1053.27;;;987.37;;
2576;SDS011;1298;51.252;6.802;2023-08-12T15:29:12;1058.17;;;991.30;;
2576;SDS011;1298;51.252;6.802;2023-08-12T15:32:05;1078.40;;;999.90;;
2576;SDS011;1298;51.252;6.802;2023-08-12T15:34:50;1042.87;;;976.93;;
2576;SDS011;1298;51.252;6.802;2023-08-12T15:37:36;1056.63;;;990.27;;
2576;SDS011;1298;51.252;6.802;2023-08-12T15:40:21;1076.37;;;999.90;;
2576;SDS011;1298;51.252;6.802;2023-08-12T15:43:08;1043.37;;;977.53;;
2576;SDS011;1298;51.252;6.802;2023-08-12T15:45:54;1045.77;;;979.97;;
2576;SDS011;1298;51.252;6.802;2023-08-12T15:48:42;1014.80;;;950.03;;
2576;SDS011;1298;51.252;6.802;2023-08-12T15:51:27;1031.13;;;965.87;;
2576;SDS011;1298;51.252;6.802;2023-08-12T15:54:13;1085.17;;;999.90;;
2576;SDS011;1298;51.252;6.802;2023-08-12T15:56:59;1011.43;;;947.10;;
2576;SDS011;1298;51.252;6.802;2023-08-12T15:59:44;1015.20;;;950.33;;
2576;SDS011;1298;51.252;6.802;2023-08-12T16:02:30;1052.93;;;986.97;;
2576;SDS011;1298;51.252;6.802;2023-08-12T16:05:17;1106.30;;;999.90;;
2576;SDS011;1298;51.252;6.802;2023-08-12T16:08:03;1048.33;;;982.17;;
2576;SDS011;1298;51.252;6.802;2023-08-12T16:10:49;1060.00;;;992.87;;